createdAt,value
2023-04-01T00:00:55.346Z,101089.78
2023-04-01T00:03:23.228Z,101095.69
2023-04-01T00:05:51.438Z,101096.56
2023-04-01T00:08:19.152Z,101104.19
2023-04-01T00:10:46.883Z,101099.09
2023-04-01T00:13:14.719Z,101104.16
2023-04-01T00:15:43.794Z,101101.63
2023-04-01T00:18:12.102Z,101099.06
2023-04-01T00:20:39.808Z,101094.84
2023-04-01T00:23:07.515Z,101106.69
2023-04-01T00:25:35.687Z,101099.06
2023-04-01T00:28:03.385Z,101108.41
2023-04-01T00:30:31.101Z,101107.53
2023-04-01T00:33:00.215Z,101098.25
2023-04-01T00:35:28.033Z,101105.00
2023-04-01T00:37:56.065Z,101105.00
2023-04-01T00:40:26.539Z,101109.22
2023-04-01T00:42:54.238Z,101108.41
2023-04-01T00:45:27.348Z,101110.06
2023-04-01T00:47:55.433Z,101107.50
2023-04-01T00:50:26.918Z,101109.19
2023-04-01T00:52:54.716Z,101109.19
2023-04-01T00:55:23.816Z,101113.44
2023-04-01T00:57:52.853Z,101115.97
2023-04-01T01:00:20.857Z,101110.91
2023-04-01T01:02:50.026Z,101115.13
2023-04-01T01:05:17.996Z,101111.72
2023-04-01T01:07:50.049Z,101112.59
2023-04-01T01:10:19.807Z,101106.66
2023-04-01T01:12:48.477Z,101112.59
2023-04-01T01:15:21.245Z,101106.66
2023-04-01T01:17:54.718Z,101107.50
2023-04-01T01:20:37.228Z,101118.56
2023-04-01T01:23:23.272Z,101120.25
2023-04-01T01:26:00.043Z,101116.84
2023-04-01T01:28:35.492Z,101112.63
2023-04-01T01:31:11.851Z,101118.59
2023-04-01T01:33:47.876Z,101111.78
2023-04-01T01:36:17.892Z,101110.97
2023-04-01T01:38:47.088Z,101112.63
2023-04-01T01:41:16.087Z,101110.94
2023-04-01T01:43:45.387Z,101110.06
2023-04-01T01:46:14.130Z,101110.06
2023-04-01T01:48:42.420Z,101111.75
2023-04-01T01:51:10.082Z,101107.53
2023-04-01T01:53:39.381Z,101105.00
2023-04-01T01:56:08.046Z,101114.31
2023-04-01T01:58:41.412Z,101112.63
2023-04-01T02:01:11.274Z,101106.69
2023-04-01T02:03:40.661Z,101118.56
2023-04-01T02:06:09.718Z,101124.47
2023-04-01T02:08:39.025Z,101118.56
2023-04-01T02:11:09.824Z,101121.91
2023-04-01T02:13:41.508Z,101122.75
2023-04-01T02:16:14.205Z,101129.50
2023-04-01T02:18:43.517Z,101130.38
2023-04-01T02:21:11.635Z,101132.06
2023-04-01T02:23:40.204Z,101137.16
2023-04-01T02:26:10.775Z,101136.34
2023-04-01T02:28:40.410Z,101144.78
2023-04-01T02:31:08.961Z,101141.38
2023-04-01T02:33:36.941Z,101139.63
2023-04-01T02:36:05.015Z,101151.53
2023-04-01T02:38:32.917Z,101149.81
2023-04-01T02:41:01.813Z,101149.00
2023-04-01T02:43:30.837Z,101145.63
2023-04-01T02:45:58.557Z,101152.41
2023-04-01T02:48:26.231Z,101149.03
2023-04-01T02:50:54.033Z,101149.06
2023-04-01T02:53:21.807Z,101154.16
2023-04-01T02:55:51.431Z,101148.19
2023-04-01T02:58:19.173Z,101144.78
2023-04-01T03:00:48.281Z,101161.75
2023-04-01T03:03:16.101Z,101152.34
2023-04-01T03:05:43.888Z,101154.03
2023-04-01T03:08:11.550Z,101160.81
2023-04-01T03:10:39.240Z,101162.50
2023-04-01T03:13:07.284Z,101157.38
2023-04-01T03:15:35.083Z,101157.34
2023-04-01T03:18:04.418Z,101164.09
2023-04-01T03:20:32.144Z,101165.03
2023-04-01T03:22:59.842Z,101168.44
2023-04-01T03:25:31.839Z,101166.75
2023-04-01T03:28:00.637Z,101169.28
2023-04-01T03:30:28.994Z,101175.16
2023-04-01T03:32:56.732Z,101177.66
2023-04-01T03:35:25.861Z,101179.31
2023-04-01T03:37:54.040Z,101190.28
2023-04-01T03:40:21.659Z,101184.25
2023-04-01T03:42:49.439Z,101192.72
2023-04-01T03:45:17.272Z,101188.47
2023-04-01T03:47:44.975Z,101197.81
2023-04-01T03:50:12.814Z,101199.47
2023-04-01T03:52:41.799Z,101210.47
2023-04-01T03:55:09.632Z,101205.38
2023-04-01T03:57:37.455Z,101203.63
2023-04-01T04:00:05.455Z,101211.22
2023-04-01T04:02:33.215Z,101208.72
2023-04-01T04:05:00.921Z,101214.69
2023-04-01T04:07:28.613Z,101222.34
2023-04-01T04:09:57.590Z,101221.50
2023-04-01T04:12:25.380Z,101223.13
2023-04-01T04:14:53.028Z,101234.94
2023-04-01T04:17:20.704Z,101225.69
2023-04-01T04:19:48.369Z,101234.22
2023-04-01T04:22:15.972Z,101225.72
2023-04-01T04:24:43.620Z,101231.66
2023-04-01T04:27:12.650Z,101234.22
2023-04-01T04:29:40.315Z,101235.06
2023-04-01T04:32:08.047Z,101240.19
2023-04-01T04:34:35.664Z,101235.97
2023-04-01T04:37:03.400Z,101238.56
2023-04-01T04:39:31.086Z,101235.06
2023-04-01T04:41:58.702Z,101246.16
2023-04-01T04:44:27.776Z,101253.81
2023-04-01T04:46:57.178Z,101249.66
2023-04-01T04:49:26.457Z,101254.00
2023-04-01T04:51:54.457Z,101258.19
2023-04-01T04:54:22.117Z,101256.53
2023-04-01T04:56:49.899Z,101263.34
2023-04-01T04:59:17.565Z,101270.13
2023-04-01T05:01:46.872Z,101271.00
2023-04-01T05:04:14.637Z,101276.13
2023-04-01T05:06:42.243Z,101274.44
2023-04-01T05:09:09.858Z,101281.28
2023-04-01T05:11:37.572Z,101282.13
2023-04-01T05:14:05.170Z,101289.75
2023-04-01T05:16:32.840Z,101290.63
2023-04-01T05:19:01.885Z,101291.50
2023-04-01T05:21:29.579Z,101291.53
2023-04-01T05:23:57.232Z,101300.88
2023-04-01T05:26:24.867Z,101292.44
2023-04-01T05:28:52.486Z,101295.91
2023-04-01T05:31:20.247Z,101299.31
2023-04-01T05:33:48.149Z,101306.97
2023-04-01T05:36:18.076Z,101307.84
2023-04-01T05:38:46.872Z,101308.75
2023-04-01T05:41:14.767Z,101308.78
2023-04-01T05:43:42.886Z,101307.06
2023-04-01T05:46:10.918Z,101314.75
2023-04-01T05:48:38.610Z,101310.53
2023-04-01T05:51:06.620Z,101312.25
2023-04-01T05:53:35.867Z,101318.25
2023-04-01T05:56:06.675Z,101318.25
2023-04-01T05:58:34.434Z,101320.78
2023-04-01T06:01:09.255Z,101321.66
2023-04-01T06:03:39.011Z,101322.53
2023-04-01T06:06:09.776Z,101325.09
2023-04-01T06:08:38.836Z,101325.13
2023-04-01T06:11:14.521Z,101328.50
2023-04-01T06:14:00.402Z,101328.47
2023-04-01T06:16:34.347Z,101340.38
2023-04-01T06:19:08.150Z,101342.06
2023-04-01T06:21:43.544Z,101339.50
2023-04-01T06:24:22.059Z,101349.69
2023-04-01T06:26:55.375Z,101344.56
2023-04-01T06:29:44.036Z,101351.31
2023-04-01T06:32:20.612Z,101348.69
2023-04-01T06:34:58.076Z,101352.91
2023-04-01T06:37:32.122Z,101353.66
2023-04-01T06:40:08.728Z,101359.53
2023-04-01T06:42:41.982Z,101352.28
2023-04-01T06:45:16.123Z,101349.25
2023-04-01T06:47:51.855Z,101345.47
2023-04-01T06:50:25.007Z,101351.59
2023-04-01T06:52:56.465Z,101356.13
2023-04-01T06:55:29.628Z,101352.69
2023-04-01T06:57:59.076Z,101350.03
2023-04-01T07:00:29.590Z,101357.84
2023-04-01T07:03:02.131Z,101356.31
2023-04-01T07:05:32.887Z,101359.16
2023-04-01T07:08:03.481Z,101357.41
2023-04-01T07:10:41.429Z,101359.91
2023-04-01T07:13:12.550Z,101366.69
2023-04-01T07:15:42.148Z,101370.06
2023-04-01T07:18:14.391Z,101369.94
2023-04-01T07:20:42.144Z,101378.34
2023-04-01T07:23:14.587Z,101380.75
2023-04-01T07:25:45.747Z,101381.50
2023-04-01T07:28:14.411Z,101376.28
2023-04-01T07:30:48.250Z,101376.94
2023-04-01T07:33:18.826Z,101372.38
2023-04-01T07:35:48.734Z,101374.06
2023-04-01T07:38:22.744Z,101378.19
2023-04-01T07:40:55.956Z,101370.22
2023-04-01T07:43:44.376Z,101382.22
2023-04-01T07:46:17.467Z,101382.13
2023-04-01T07:48:50.124Z,101384.63
2023-04-01T07:51:19.904Z,101383.69
2023-04-01T07:53:50.833Z,101386.16
2023-04-01T07:56:24.905Z,101394.34
2023-04-01T07:58:58.355Z,101401.88
2023-04-01T08:01:31.035Z,101399.94
2023-04-01T08:04:12.758Z,101392.88
2023-04-01T08:06:45.764Z,101390.28
2023-04-01T08:09:17.614Z,101396.94
2023-04-01T08:11:59.313Z,101394.97
2023-04-01T08:14:32.929Z,101397.41
2023-04-01T08:17:05.083Z,101407.50
2023-04-01T08:19:38.883Z,101390.78
2023-04-01T08:22:11.008Z,101401.56
2023-04-01T08:24:47.628Z,101405.72
2023-04-01T08:27:19.849Z,101408.41
2023-04-01T08:29:51.141Z,101413.31
2023-04-01T08:32:21.557Z,101409.69
2023-04-01T08:34:52.688Z,101414.81
2023-04-01T08:37:23.126Z,101416.88
2023-04-01T08:39:52.783Z,101417.44
2023-04-01T08:42:42.822Z,101418.13
2023-04-01T08:45:32.907Z,101423.84
2023-04-01T08:48:16.632Z,101424.88
2023-04-01T08:51:05.378Z,101426.91
2023-04-01T08:53:44.193Z,101425.09
2023-04-01T08:56:17.103Z,101424.72
2023-04-01T08:59:01.743Z,101433.94
2023-04-01T09:01:44.756Z,101433.50
2023-04-01T09:04:33.498Z,101426.72
2023-04-01T09:07:06.403Z,101427.81
2023-04-01T09:09:48.324Z,101430.00
2023-04-01T09:12:46.863Z,101432.16
2023-04-01T09:15:23.068Z,101432.78
2023-04-01T09:18:06.620Z,101435.09
2023-04-01T09:20:47.047Z,101433.91
2023-04-01T09:23:29.289Z,101438.69
2023-04-01T09:26:02.759Z,101446.88
2023-04-01T09:28:35.894Z,101435.09
2023-04-01T09:31:12.319Z,101447.63
2023-04-01T09:33:50.091Z,101439.66
2023-04-01T09:36:25.140Z,101436.97
2023-04-01T09:38:57.929Z,101449.81
2023-04-01T09:41:30.747Z,101446.06
2023-04-01T09:44:05.564Z,101440.78
2023-04-01T09:46:44.810Z,101444.06
2023-04-01T09:49:31.407Z,101443.88
2023-04-01T09:52:07.714Z,101447.88
2023-04-01T09:54:42.500Z,101455.38
2023-04-01T09:57:27.768Z,101458.59
2023-04-01T10:00:14.266Z,101450.75
2023-04-01T10:03:00.568Z,101449.09
2023-04-01T10:05:46.442Z,101449.66
2023-04-01T10:08:40.108Z,101448.66
2023-04-01T10:11:23.201Z,101452.69
2023-04-01T10:13:59.498Z,101454.25
2023-04-01T10:16:44.845Z,101463.44
2023-04-01T10:19:22.758Z,101459.06
2023-04-01T10:21:59.103Z,101467.38
2023-04-01T10:24:50.605Z,101471.00
2023-04-01T10:27:36.148Z,101468.94
2023-04-01T10:30:22.429Z,101471.31
2023-04-01T10:33:07.419Z,101473.97
2023-04-01T10:35:59.985Z,101485.03
2023-04-01T10:38:45.495Z,101485.72
2023-04-01T10:41:25.939Z,101490.09
2023-04-01T10:44:09.465Z,101484.06
2023-04-01T10:46:51.988Z,101485.88
2023-04-01T10:49:36.583Z,101488.47
2023-04-01T10:52:25.184Z,101496.47
2023-04-01T10:55:00.487Z,101490.28
2023-04-01T10:58:03.225Z,101486.00
2023-04-01T11:00:35.830Z,101505.59
2023-04-01T11:03:22.207Z,101502.03
2023-04-01T11:06:20.065Z,101497.66
2023-04-01T11:09:15.088Z,101507.81
2023-04-01T11:12:00.444Z,101512.72
2023-04-01T11:14:58.098Z,101504.94
2023-04-01T11:17:40.586Z,101519.69
2023-04-01T11:20:26.095Z,101513.91
2023-04-01T11:23:08.554Z,101525.84
2023-04-01T11:25:52.554Z,101519.91
2023-04-01T11:28:29.676Z,101533.69
2023-04-01T11:31:11.255Z,101527.72
2023-04-01T11:33:41.560Z,101540.69
2023-04-01T11:36:18.449Z,101541.00
2023-04-01T11:38:54.608Z,101541.19
2023-04-01T11:41:28.658Z,101554.88
2023-04-01T11:44:05.550Z,101553.31
2023-04-01T11:46:35.964Z,101559.91
2023-04-01T11:49:09.848Z,101554.94
2023-04-01T11:51:47.025Z,101553.22
2023-04-01T11:54:22.393Z,101555.97
2023-04-01T11:57:01.869Z,101555.97
2023-04-01T11:59:41.507Z,101559.66
2023-04-01T12:02:15.292Z,101563.63
2023-04-01T12:05:07.272Z,101563.59
2023-04-01T12:07:53.255Z,101562.72
2023-04-01T12:10:22.926Z,101568.94
2023-04-01T12:13:01.687Z,101574.72
2023-04-01T12:15:35.361Z,101566.44
2023-04-01T12:18:08.119Z,101569.09
2023-04-01T12:20:41.607Z,101572.69
2023-04-01T12:23:17.297Z,101564.19
2023-04-01T12:25:59.060Z,101576.03
2023-04-01T12:28:35.177Z,101577.81
2023-04-01T12:31:16.656Z,101583.09
2023-04-01T12:33:54.751Z,101583.03
2023-04-01T12:36:33.423Z,101596.38
2023-04-01T12:39:20.139Z,101597.94
2023-04-01T12:41:51.935Z,101590.22
2023-04-01T12:44:29.028Z,101603.34
2023-04-01T12:47:08.567Z,101610.19
2023-04-01T12:49:54.212Z,101610.41
2023-04-01T12:52:29.185Z,101609.31
2023-04-01T12:55:10.043Z,101610.47
2023-04-01T12:57:48.969Z,101625.13
2023-04-01T13:00:30.214Z,101627.84
2023-04-01T13:03:07.648Z,101625.66
2023-04-01T13:05:50.194Z,101628.34
2023-04-01T13:08:29.396Z,101637.75
2023-04-01T13:11:04.872Z,101633.66
2023-04-01T13:13:53.814Z,101650.16
2023-04-01T13:16:26.349Z,101646.03
2023-04-01T13:18:59.699Z,101652.25
2023-04-01T13:21:33.472Z,101658.22
2023-04-01T13:24:06.055Z,101648.81
2023-04-01T13:26:39.704Z,101656.50
2023-04-01T13:29:12.342Z,101658.22
2023-04-01T13:31:53.072Z,101665.97
2023-04-01T13:34:29.117Z,101670.44
2023-04-01T13:37:02.547Z,101671.28
2023-04-01T13:39:35.720Z,101681.00
2023-04-01T13:42:14.287Z,101673.94
2023-04-01T13:44:44.692Z,101694.78
2023-04-01T13:47:26.137Z,101689.59
2023-04-01T13:50:04.013Z,101696.59
2023-04-01T13:52:51.728Z,101695.78
2023-04-01T13:55:46.258Z,101696.69
2023-04-01T13:58:31.392Z,101698.41
2023-04-01T14:01:06.896Z,101688.00
2023-04-01T14:03:45.454Z,101696.75
2023-04-01T14:06:28.055Z,101688.91
2023-04-01T14:09:19.895Z,101700.38
2023-04-01T14:11:53.962Z,101696.06
2023-04-01T14:14:30.827Z,101697.69
2023-04-01T14:17:05.367Z,101708.91
2023-04-01T14:19:48.155Z,101705.63
2023-04-01T14:22:21.161Z,101712.69
2023-04-01T14:24:57.984Z,101712.88
2023-04-01T14:27:49.433Z,101711.22
2023-04-01T14:30:22.890Z,101729.25
2023-04-01T14:32:54.507Z,101716.34
2023-04-01T14:35:29.972Z,101715.53
2023-04-01T14:38:04.935Z,101719.03
2023-04-01T14:40:42.866Z,101719.13
2023-04-01T14:43:22.961Z,101730.31
2023-04-01T14:46:08.645Z,101726.94
2023-04-01T14:48:38.601Z,101733.16
2023-04-01T14:51:12.261Z,101736.56
2023-04-01T14:53:49.126Z,101735.63
2023-04-01T14:56:36.788Z,101734.13
2023-04-01T14:59:09.583Z,101741.03
2023-04-01T15:01:43.642Z,101749.78
2023-04-01T15:04:29.694Z,101754.41
2023-04-01T15:07:04.582Z,101761.59
2023-04-01T15:09:37.960Z,101756.50
2023-04-01T15:12:14.291Z,101766.06
2023-04-01T15:14:48.932Z,101765.34
2023-04-01T15:17:26.240Z,101765.31
2023-04-01T15:20:02.802Z,101768.81
2023-04-01T15:22:40.870Z,101759.34
2023-04-01T15:25:19.467Z,101770.56
2023-04-01T15:27:51.702Z,101769.75
2023-04-01T15:30:28.450Z,101774.16
2023-04-01T15:33:04.979Z,101773.16
2023-04-01T15:35:39.861Z,101786.19
2023-04-01T15:38:13.419Z,101776.88
2023-04-01T15:40:45.311Z,101789.84
2023-04-01T15:43:23.246Z,101785.66
2023-04-01T15:45:54.247Z,101792.50
2023-04-01T15:48:42.759Z,101797.69
2023-04-01T15:51:13.950Z,101799.56
2023-04-01T15:53:52.100Z,101810.91
2023-04-01T15:56:28.388Z,101800.56
2023-04-01T15:59:02.681Z,101800.75
2023-04-01T16:01:37.342Z,101811.06
2023-04-01T16:04:14.044Z,101817.19
2023-04-01T16:07:05.940Z,101822.56
2023-04-01T16:09:40.865Z,101820.91
2023-04-01T16:12:15.098Z,101828.81
2023-04-01T16:14:46.779Z,101834.09
2023-04-01T16:17:23.657Z,101837.63
2023-04-01T16:19:53.581Z,101834.38
2023-04-01T16:22:23.613Z,101837.81
2023-04-01T16:24:55.988Z,101835.53
2023-04-01T16:27:29.324Z,101839.06
2023-04-01T16:30:01.337Z,101841.00
2023-04-01T16:32:36.540Z,101850.56
2023-04-01T16:35:14.556Z,101854.03
2023-04-01T16:37:46.922Z,101850.72
2023-04-01T16:40:25.225Z,101858.59
2023-04-01T16:42:54.969Z,101860.34
2023-04-01T16:45:28.681Z,101863.03
2023-04-01T16:47:58.775Z,101869.09
2023-04-01T16:50:30.884Z,101869.28
2023-04-01T16:53:03.698Z,101869.34
2023-04-01T16:55:46.053Z,101873.72
2023-04-01T16:58:20.186Z,101878.13
2023-04-01T17:00:52.601Z,101879.94
2023-04-01T17:03:26.094Z,101887.84
2023-04-01T17:06:00.559Z,101900.03
2023-04-01T17:08:34.064Z,101895.78
2023-04-01T17:11:10.048Z,101895.94
2023-04-01T17:13:42.381Z,101905.47
2023-04-01T17:16:17.122Z,101910.69
2023-04-01T17:18:51.763Z,101912.50
2023-04-01T17:21:22.949Z,101915.19
2023-04-01T17:23:52.965Z,101921.47
2023-04-01T17:26:30.055Z,101922.38
2023-04-01T17:29:00.631Z,101925.06
2023-04-01T17:31:41.530Z,101920.06
2023-04-01T17:34:17.582Z,101928.78
2023-04-01T17:36:54.363Z,101935.72
2023-04-01T17:39:28.583Z,101931.47
2023-04-01T17:42:02.697Z,101937.50
2023-04-01T17:44:41.067Z,101947.97
2023-04-01T17:47:19.794Z,101944.63
2023-04-01T17:49:52.192Z,101946.34
2023-04-01T17:52:23.337Z,101948.94
2023-04-01T17:54:55.562Z,101957.69
2023-04-01T17:57:32.940Z,101954.31
2023-04-01T18:00:04.562Z,101959.50
2023-04-01T18:02:38.348Z,101963.00
2023-04-01T18:05:23.412Z,101961.41
2023-04-01T18:08:10.015Z,101963.16
2023-04-01T18:10:43.778Z,101967.53
2023-04-01T18:13:21.508Z,101969.34
2023-04-01T18:15:56.232Z,101976.22
2023-04-01T18:18:38.999Z,101972.00
2023-04-01T18:21:09.759Z,101983.25
2023-04-01T18:23:42.812Z,101982.41
2023-04-01T18:26:15.813Z,101983.31
2023-04-01T18:28:48.525Z,101987.63
2023-04-01T18:31:19.446Z,101996.28
2023-04-01T18:33:51.267Z,101997.13
2023-04-01T18:36:22.744Z,102004.84
2023-04-01T18:38:52.525Z,102007.44
2023-04-01T18:41:23.274Z,102009.25
2023-04-01T18:43:57.355Z,102010.13
2023-04-01T18:46:28.716Z,102009.31
2023-04-01T18:49:02.370Z,102012.78
2023-04-01T18:51:37.981Z,102019.72
2023-04-01T18:54:12.349Z,102018.88
2023-04-01T18:56:41.129Z,102032.66
2023-04-01T18:59:13.753Z,102028.41
2023-04-01T19:01:44.927Z,102036.16
2023-04-01T19:04:18.033Z,102037.91
2023-04-01T19:06:49.217Z,102034.50
2023-04-01T19:09:21.808Z,102040.50
2023-04-01T19:11:57.752Z,102048.28
2023-04-01T19:14:31.778Z,102054.34
2023-04-01T19:17:04.208Z,102055.19
2023-04-01T19:19:38.557Z,102056.03
2023-04-01T19:22:15.849Z,102061.22
2023-04-01T19:24:53.942Z,102065.53
2023-04-01T19:27:28.707Z,102067.28
2023-04-01T19:30:07.928Z,102075.00
2023-04-01T19:32:43.974Z,102077.59
2023-04-01T19:35:16.502Z,102073.34
2023-04-01T19:37:47.268Z,102080.19
2023-04-01T19:40:22.282Z,102087.03
2023-04-01T19:42:56.852Z,102082.78
2023-04-01T19:45:31.593Z,102087.94
2023-04-01T19:48:04.289Z,102090.53
2023-04-01T19:50:38.016Z,102091.41
2023-04-01T19:53:09.736Z,102099.13
2023-04-01T19:55:40.832Z,102102.53
2023-04-01T19:58:15.694Z,102104.28
2023-04-01T20:00:45.860Z,102100.84
2023-04-01T20:03:27.485Z,102100.88
2023-04-01T20:06:03.633Z,102106.03
2023-04-01T20:08:35.990Z,102106.91
2023-04-01T20:11:08.163Z,102111.19
2023-04-01T20:13:44.385Z,102112.06
2023-04-01T20:16:16.364Z,102117.22
2023-04-01T20:18:48.134Z,102118.09
2023-04-01T20:21:23.409Z,102120.66
2023-04-01T20:23:56.350Z,102122.34
2023-04-01T20:26:26.820Z,102124.94
2023-04-01T20:29:03.056Z,102124.94
2023-04-01T20:31:36.428Z,102130.94
2023-04-01T20:34:10.674Z,102131.78
2023-04-01T20:36:42.318Z,102129.22
2023-04-01T20:39:17.608Z,102145.50
2023-04-01T20:41:51.733Z,102137.81
2023-04-01T20:44:21.122Z,102151.50
2023-04-01T20:46:57.522Z,102153.22
2023-04-01T20:49:44.393Z,102148.09
2023-04-01T20:52:31.700Z,102156.66
2023-04-01T20:55:15.593Z,102149.78
2023-04-01T20:57:47.105Z,102156.66
2023-04-01T21:00:29.797Z,102164.38
2023-04-01T21:03:08.265Z,102169.50
2023-04-01T21:05:47.383Z,102168.66
2023-04-01T21:08:20.213Z,102166.94
2023-04-01T21:10:52.460Z,102175.47
2023-04-01T21:13:30.506Z,102185.78
2023-04-01T21:16:04.789Z,102184.91
2023-04-01T21:18:46.098Z,102182.34
2023-04-01T21:21:28.654Z,102185.78
2023-04-01T21:24:05.451Z,102184.91
2023-04-01T21:26:40.123Z,102191.75
2023-04-01T21:29:21.895Z,102190.91
2023-04-01T21:31:59.266Z,102196.03
2023-04-01T21:34:52.991Z,102196.88
2023-04-01T21:37:28.546Z,102202.00
2023-04-01T21:40:04.807Z,102205.44
2023-04-01T21:42:41.145Z,102209.69
2023-04-01T21:45:14.567Z,102207.13
2023-04-01T21:47:59.933Z,102215.72
2023-04-01T21:50:44.528Z,102214.84
2023-04-01T21:53:21.565Z,102219.97
2023-04-01T21:56:10.924Z,102219.94
2023-04-01T21:58:54.463Z,102218.25
2023-04-01T22:01:45.832Z,102225.91
2023-04-01T22:04:22.335Z,102228.44
2023-04-01T22:06:52.599Z,102231.88
2023-04-01T22:09:23.310Z,102233.56
2023-04-01T22:11:57.680Z,102240.44
2023-04-01T22:14:29.838Z,102245.53
2023-04-01T22:16:59.455Z,102248.09
2023-04-01T22:19:32.312Z,102254.91
2023-04-01T22:22:03.675Z,102254.00
2023-04-01T22:24:36.800Z,102254.84
2023-04-01T22:27:07.833Z,102259.09
2023-04-01T22:29:42.882Z,102265.91
2023-04-01T22:32:15.024Z,102265.03
2023-04-01T22:34:46.553Z,102265.03
2023-04-01T22:37:20.794Z,102274.44
2023-04-01T22:39:57.311Z,102283.81
2023-04-01T22:42:41.502Z,102276.06
2023-04-01T22:45:22.117Z,102281.16
2023-04-01T22:47:54.287Z,102287.97
2023-04-01T22:50:24.040Z,102283.66
2023-04-01T22:52:58.082Z,102287.06
2023-04-01T22:55:28.417Z,102292.19
2023-04-01T22:57:59.184Z,102298.16
2023-04-01T23:00:29.064Z,102298.13
2023-04-01T23:03:13.740Z,102302.41
2023-04-01T23:05:45.423Z,102298.88
2023-04-01T23:08:29.696Z,102306.56
2023-04-01T23:10:58.879Z,102302.31
2023-04-01T23:13:29.949Z,102309.13
2023-04-01T23:15:58.066Z,102310.84
2023-04-01T23:18:28.175Z,102317.63
2023-04-01T23:21:13.534Z,102318.47
2023-04-01T23:23:47.821Z,102320.19
2023-04-01T23:26:17.437Z,102322.72
2023-04-01T23:28:49.943Z,102326.94
2023-04-01T23:31:31.825Z,102325.22
2023-04-01T23:34:01.120Z,102325.19
2023-04-01T23:36:29.408Z,102332.84
2023-04-01T23:38:59.949Z,102340.47
2023-04-01T23:41:29.029Z,102342.16
2023-04-01T23:43:58.569Z,102343.88
2023-04-01T23:46:26.878Z,102343.91
2023-04-01T23:48:55.028Z,102351.53
2023-04-01T23:51:24.433Z,102350.59
2023-04-01T23:54:01.216Z,102354.97
2023-04-01T23:56:36.660Z,102359.13
2023-04-01T23:59:04.950Z,102364.16
